Time;durP1;ratioP1;P1;durP2;ratioP2;P2;SDS_P1;SDS_P2;PMS_P1;PMS_P2;Temp;Humidity;BMP_temperature;BMP_pressure;BME280_temperature;BME280_humidity;BME280_pressure;Samples;Min_cycle;Max_cycle;Signal;HPM_P1;HPM_P2
2021/08/26 00:05:43;;;;;;;;;;;12.80;99.90;;;;;;5015895;28;19925;-73
2021/08/26 00:06:52;;;;;;;;;;;12.90;99.90;;;;;;5033123;28;19925;-72
2021/08/26 00:09:18;;;;;;;;;;;12.90;99.90;;;;;;5016071;28;19957;-72
2021/08/26 00:11:47;;;;;;;;;;;12.90;99.90;;;;;;5033681;28;20450;-73
2021/08/26 00:14:19;;;;;;;;;;;12.90;99.90;;;;;;5015602;28;20007;-73
2021/08/26 00:16:45;;;;;;;;;;;12.90;99.90;;;;;;5033069;28;20012;-73
2021/08/26 00:19:19;;;;;;;;;;;12.90;99.90;;;;;;5015540;28;20431;-73
2021/08/26 00:21:50;;;;;;;;;;;12.90;99.90;;;;;;5016536;28;20455;-72
2021/08/26 00:24:22;;;;;;;;;;;12.90;99.90;;;;;;5015474;28;20035;-72
2021/08/26 00:26:54;;;;;;;;;;;12.90;99.90;;;;;;4999629;28;20383;-73
2021/08/26 00:29:25;;;;;;;;;;;12.80;99.90;;;;;;5015498;28;19979;-74
2021/08/26 00:31:57;;;;;;;;;;;12.80;99.90;;;;;;5033130;28;19979;-74
2021/08/26 00:34:29;;;;;;;;;;;12.80;99.90;;;;;;5033012;28;19925;-73
2021/08/26 00:37:01;;;;;;;;;;;12.80;99.90;;;;;;5033277;28;20357;-73
2021/08/26 00:39:28;;;;;;;;;;;12.70;99.90;;;;;;5015244;28;19963;-72
2021/08/26 00:41:54;;;;;;;;;;;12.70;99.90;;;;;;5015468;28;20019;-73
2021/08/26 00:44:21;;;;;;;;;;;12.70;99.90;;;;;;5032828;28;20383;-72
2021/08/26 00:46:53;;;;;;;;;;;12.70;99.90;;;;;;5015642;28;20350;-72
2021/08/26 00:49:19;;;;;;;;;;;12.70;99.90;;;;;;5015018;28;20430;-73
2021/08/26 00:51:51;;;;;;;;;;;12.70;99.90;;;;;;5015215;28;20031;-72
2021/08/26 00:54:23;;;;;;;;;;;12.60;99.90;;;;;;4999696;28;20360;-73
2021/08/26 00:56:57;;;;;;;;;;;12.60;99.90;;;;;;5032329;28;20478;-72
2021/08/26 00:59:31;;;;;;;;;;;12.50;99.90;;;;;;5014808;28;19925;-73
2021/08/26 01:02:23;;;;;;;;;;;12.40;99.90;;;;;;5031941;28;19961;-73
2021/08/26 01:05:02;;;;;;;;;;;12.40;99.90;;;;;;5032027;28;19925;-72
2021/08/26 01:07:40;;;;;;;;;;;12.40;99.90;;;;;;5014249;28;20014;-72
2021/08/26 01:10:14;;;;;;;;;;;12.30;99.90;;;;;;5014778;28;20356;-73
2021/08/26 01:12:43;;;;;;;;;;;12.20;99.90;;;;;;4998597;28;19963;-73
2021/08/26 01:15:15;;;;;;;;;;;12.20;99.90;;;;;;5032128;28;19971;-72
2021/08/26 01:17:47;;;;;;;;;;;12.20;99.90;;;;;;4999048;28;19929;-73
2021/08/26 01:20:14;;;;;;;;;;;12.20;99.90;;;;;;4998093;28;19925;-72
2021/08/26 01:22:41;;;;;;;;;;;12.10;99.90;;;;;;5031684;28;19956;-73
2021/08/26 01:25:15;;;;;;;;;;;12.10;99.90;;;;;;5031282;28;19925;-72
2021/08/26 01:27:41;;;;;;;;;;;12.20;99.90;;;;;;5031530;28;20020;-74
2021/08/26 01:30:23;;;;;;;;;;;12.20;99.90;;;;;;5031645;28;19929;-73
2021/08/26 01:32:57;;;;;;;;;;;12.30;99.90;;;;;;5014427;28;20020;-72
2021/08/26 01:35:29;;;;;;;;;;;12.30;99.90;;;;;;5031825;28;20019;-73
2021/08/26 01:38:01;;;;;;;;;;;12.30;99.90;;;;;;5015222;28;19964;-73
2021/08/26 01:40:39;;;;;;;;;;;12.30;99.90;;;;;;5014411;28;19964;-72
2021/08/26 01:43:10;;;;;;;;;;;12.40;99.90;;;;;;5014296;28;20369;-73
2021/08/26 01:45:45;;;;;;;;;;;12.40;99.90;;;;;;5014954;28;20027;-72
2021/08/26 01:48:19;;;;;;;;;;;12.40;99.90;;;;;;5014169;28;19925;-73
2021/08/26 01:50:50;;;;;;;;;;;12.40;99.90;;;;;;5031979;28;20627;-72
2021/08/26 01:53:22;;;;;;;;;;;12.40;99.90;;;;;;5031792;28;19975;-73
2021/08/26 01:55:54;;;;;;;;;;;12.40;99.90;;;;;;5013779;28;19952;-73
2021/08/26 01:58:20;;;;;;;;;;;12.40;99.90;;;;;;5031723;28;19960;-73
2021/08/26 02:00:52;;;;;;;;;;;12.30;99.90;;;;;;5014277;28;20376;-72
2021/08/26 02:03:24;;;;;;;;;;;12.30;99.90;;;;;;5015238;28;20335;-72
2021/08/26 02:05:50;;;;;;;;;;;12.30;99.90;;;;;;5014048;28;19960;-72
2021/08/26 02:08:22;;;;;;;;;;;12.30;99.90;;;;;;5031674;28;20032;-73
2021/08/26 02:10:54;;;;;;;;;;;12.30;99.90;;;;;;5014129;28;19932;-72
2021/08/26 02:13:20;;;;;;;;;;;12.30;99.90;;;;;;5014031;28;20016;-74
2021/08/26 02:15:52;;;;;;;;;;;12.30;99.90;;;;;;5013780;28;20128;-73
2021/08/26 02:18:19;;;;;;;;;;;12.40;99.90;;;;;;5014203;28;20470;-73
2021/08/26 02:20:50;;;;;;;;;;;12.50;99.90;;;;;;5018822;28;20335;-75
2021/08/26 02:23:22;;;;;;;;;;;12.60;99.90;;;;;;5035722;28;19991;-73
2021/08/26 02:25:54;;;;;;;;;;;12.70;99.90;;;;;;5002033;28;20020;-72
2021/08/26 02:28:20;;;;;;;;;;;12.60;99.90;;;;;;5017478;28;19967;-72
2021/08/26 02:30:52;;;;;;;;;;;12.60;99.90;;;;;;5035517;28;19961;-73
2021/08/26 02:33:19;;;;;;;;;;;12.60;99.90;;;;;;5017684;28;19925;-72
2021/08/26 02:35:50;;;;;;;;;;;12.60;99.90;;;;;;5017313;28;20015;-73
2021/08/26 02:38:17;;;;;;;;;;;12.60;99.90;;;;;;5017594;28;20389;-72
2021/08/26 02:40:44;;;;;;;;;;;12.70;99.90;;;;;;5017483;28;20471;-75
2021/08/26 02:43:15;;;;;;;;;;;12.80;99.90;;;;;;5017440;28;20024;-72
2021/08/26 02:45:47;;;;;;;;;;;12.80;99.90;;;;;;5018154;28;19925;-73
2021/08/26 02:48:19;;;;;;;;;;;12.90;99.90;;;;;;5035016;28;19925;-73
2021/08/26 02:50:45;;;;;;;;;;;12.90;99.90;;;;;;5001149;28;20012;-73
2021/08/26 02:53:17;;;;;;;;;;;13.00;99.90;;;;;;5018353;28;19975;-73
2021/08/26 02:55:49;;;;;;;;;;;13.10;99.90;;;;;;5017878;28;20392;-72
2021/08/26 02:58:15;;;;;;;;;;;13.20;99.90;;;;;;5034635;28;20378;-73
2021/08/26 03:00:42;;;;;;;;;;;13.30;99.90;;;;;;5017431;28;19960;-73
2021/08/26 03:03:09;;;;;;;;;;;13.40;99.90;;;;;;5034978;28;19976;-72
2021/08/26 03:05:35;;;;;;;;;;;13.40;99.90;;;;;;5034518;28;19925;-72
2021/08/26 03:08:07;;;;;;;;;;;13.50;99.90;;;;;;5017965;28;20396;-73
2021/08/26 03:10:39;;;;;;;;;;;13.50;99.90;;;;;;5034665;28;19925;-73
2021/08/26 03:13:10;;;;;;;;;;;13.50;99.90;;;;;;5016892;28;19972;-73
2021/08/26 03:15:42;;;;;;;;;;;13.50;99.90;;;;;;5017568;28;20011;-72
2021/08/26 03:18:09;;;;;;;;;;;13.60;99.90;;;;;;5000561;28;20015;-72
2021/08/26 03:20:38;;;;;;;;;;;13.50;99.90;;;;;;5016784;28;19925;-72
2021/08/26 03:23:11;;;;;;;;;;;13.50;99.90;;;;;;5017591;28;20004;-72
2021/08/26 03:25:38;;;;;;;;;;;13.50;99.90;;;;;;5016377;28;20023;-73
2021/08/26 03:28:10;;;;;;;;;;;13.50;99.90;;;;;;5017531;28;19925;-73
2021/08/26 03:30:41;;;;;;;;;;;13.50;99.90;;;;;;5016380;28;19980;-72
2021/08/26 03:33:08;;;;;;;;;;;13.50;99.90;;;;;;5016587;28;20043;-72
2021/08/26 03:35:40;;;;;;;;;;;13.50;99.90;;;;;;5016069;28;19972;-74
2021/08/26 03:38:06;;;;;;;;;;;13.50;99.90;;;;;;5016440;28;20023;-73
2021/08/26 03:40:33;;;;;;;;;;;13.50;99.90;;;;;;5034161;28;19945;-72
2021/08/26 03:43:05;;;;;;;;;;;13.50;99.90;;;;;;5016774;28;20303;-72
2021/08/26 03:45:31;;;;;;;;;;;13.50;99.90;;;;;;5016092;28;19967;-72
2021/08/26 03:48:03;;;;;;;;;;;13.50;99.90;;;;;;5033958;28;19972;-72
2021/08/26 03:50:30;;;;;;;;;;;13.50;99.90;;;;;;4999551;28;20337;-72
2021/08/26 03:52:56;;;;;;;;;;;13.50;99.90;;;;;;5033351;28;20020;-72
2021/08/26 03:55:28;;;;;;;;;;;13.50;99.90;;;;;;5015162;28;20031;-73
2021/08/26 03:57:55;;;;;;;;;;;13.50;99.90;;;;;;4999130;28;19925;-72
2021/08/26 04:00:26;;;;;;;;;;;13.50;99.90;;;;;;5015552;28;19925;-72
2021/08/26 04:02:58;;;;;;;;;;;13.50;99.90;;;;;;5033407;28;20027;-72
2021/08/26 04:05:29;;;;;;;;;;;13.50;99.90;;;;;;5015009;28;19924;-73
2021/08/26 04:07:56;;;;;;;;;;;13.50;99.90;;;;;;5015546;28;20008;-73
2021/08/26 04:10:28;;;;;;;;;;;13.40;99.90;;;;;;5033006;28;19984;-74
2021/08/26 04:12:59;;;;;;;;;;;13.30;99.90;;;;;;5033175;28;20016;-73
2021/08/26 04:15:31;;;;;;;;;;;13.30;99.90;;;;;;5014771;28;20481;-72
2021/08/26 04:17:58;;;;;;;;;;;13.30;99.90;;;;;;5015296;28;19929;-72
2021/08/26 04:20:24;;;;;;;;;;;13.30;99.90;;;;;;5015090;28;19976;-74
2021/08/26 04:22:56;;;;;;;;;;;13.20;99.90;;;;;;5015148;28;19925;-73
2021/08/26 04:25:28;;;;;;;;;;;13.20;99.90;;;;;;5032350;28;19964;-74
2021/08/26 04:28:00;;;;;;;;;;;13.20;99.90;;;;;;5032752;28;19929;-73
2021/08/26 04:30:26;;;;;;;;;;;13.10;99.90;;;;;;5014932;28;19975;-73
2021/08/26 04:32:58;;;;;;;;;;;13.10;99.90;;;;;;5014918;28;19936;-73
2021/08/26 04:35:30;;;;;;;;;;;13.00;99.90;;;;;;5032356;28;19925;-73
2021/08/26 04:37:56;;;;;;;;;;;13.00;99.90;;;;;;5015453;28;19952;-72
2021/08/26 04:40:23;;;;;;;;;;;13.00;99.90;;;;;;5032929;28;20019;-73
2021/08/26 04:42:55;;;;;;;;;;;13.00;99.90;;;;;;5015018;28;20027;-72
2021/08/26 04:45:27;;;;;;;;;;;13.00;99.90;;;;;;5014916;28;20360;-73
2021/08/26 04:47:59;;;;;;;;;;;13.00;99.90;;;;;;4999652;28;20031;-72
2021/08/26 04:50:25;;;;;;;;;;;13.00;99.90;;;;;;5032836;28;19979;-72
2021/08/26 04:52:52;;;;;;;;;;;13.10;99.90;;;;;;5032755;28;19925;-73
2021/08/26 04:55:24;;;;;;;;;;;13.10;99.90;;;;;;5015546;28;19971;-73
2021/08/26 04:57:55;;;;;;;;;;;13.10;99.90;;;;;;5033003;28;19964;-73
2021/08/26 05:00:27;;;;;;;;;;;13.10;99.90;;;;;;5015051;28;19977;-73
2021/08/26 05:02:59;;;;;;;;;;;13.00;99.90;;;;;;5015131;28;19965;-72
2021/08/26 05:05:30;;;;;;;;;;;13.00;99.90;;;;;;5032186;28;19925;-72
2021/08/26 05:08:03;;;;;;;;;;;13.00;99.90;;;;;;5014759;28;19925;-72
2021/08/26 05:10:29;;;;;;;;;;;13.00;99.90;;;;;;5014913;28;20019;-74
2021/08/26 05:13:01;;;;;;;;;;;12.90;99.90;;;;;;5032454;28;19964;-72
2021/08/26 05:15:35;;;;;;;;;;;12.90;99.90;;;;;;5014220;28;19961;-73
2021/08/26 05:18:02;;;;;;;;;;;13.00;99.90;;;;;;5032229;28;20021;-74
2021/08/26 05:20:34;;;;;;;;;;;13.00;99.90;;;;;;5032414;28;19988;-72
2021/08/26 05:23:05;;;;;;;;;;;13.00;99.90;;;;;;5014602;28;20023;-73
2021/08/26 05:25:33;;;;;;;;;;;13.00;99.90;;;;;;5031908;28;20039;-72
2021/08/26 05:28:05;;;;;;;;;;;13.10;99.90;;;;;;5015208;28;19976;-75
2021/08/26 05:30:31;;;;;;;;;;;13.10;99.90;;;;;;5014524;28;20020;-72
2021/08/26 05:33:04;;;;;;;;;;;13.20;99.90;;;;;;5032200;28;20362;-73
2021/08/26 05:35:31;;;;;;;;;;;13.20;99.90;;;;;;5014168;28;19925;-72
2021/08/26 05:37:57;;;;;;;;;;;13.30;99.90;;;;;;5014438;28;19925;-73
2021/08/26 05:40:29;;;;;;;;;;;13.30;99.90;;;;;;5014430;28;19961;-72
2021/08/26 05:42:56;;;;;;;;;;;13.40;99.90;;;;;;5014207;28;20027;-75
2021/08/26 05:45:27;;;;;;;;;;;13.50;99.90;;;;;;5013986;28;20343;-72
2021/08/26 05:47:59;;;;;;;;;;;13.50;99.90;;;;;;5032166;28;20031;-73
2021/08/26 05:50:31;;;;;;;;;;;13.50;99.90;;;;;;5032122;28;19925;-73
2021/08/26 05:53:03;;;;;;;;;;;13.60;99.90;;;;;;5013545;28;19925;-73
2021/08/26 05:55:34;;;;;;;;;;;13.70;99.90;;;;;;5031293;28;20040;-74
2021/08/26 05:58:06;;;;;;;;;;;13.70;99.90;;;;;;5014243;28;20020;-73
2021/08/26 06:00:33;;;;;;;;;;;13.70;99.90;;;;;;4997853;28;20040;-75
2021/08/26 06:02:59;;;;;;;;;;;13.70;99.90;;;;;;5014178;28;20360;-73
2021/08/26 06:05:31;;;;;;;;;;;13.70;99.90;;;;;;5013934;28;19936;-74
2021/08/26 06:07:58;;;;;;;;;;;13.80;99.90;;;;;;5031700;28;19928;-73
2021/08/26 06:10:29;;;;;;;;;;;13.90;99.90;;;;;;5014179;28;20367;-75
2021/08/26 06:12:56;;;;;;;;;;;13.90;99.90;;;;;;5014151;28;19932;-72
2021/08/26 06:15:28;;;;;;;;;;;13.90;99.90;;;;;;5013702;28;19925;-75
2021/08/26 06:17:59;;;;;;;;;;;13.90;99.90;;;;;;5013871;28;19965;-72
2021/08/26 06:20:26;;;;;;;;;;;13.90;99.90;;;;;;5013983;28;20017;-74
2021/08/26 06:22:58;;;;;;;;;;;13.90;99.90;;;;;;5031619;28;19925;-72
2021/08/26 06:25:29;;;;;;;;;;;13.90;99.90;;;;;;5013509;28;20431;-73
2021/08/26 06:27:59;;;;;;;;;;;13.90;99.90;;;;;;5031349;28;19925;-72
2021/08/26 06:30:26;;;;;;;;;;;13.90;99.90;;;;;;5031528;28;20015;-72
2021/08/26 06:32:58;;;;;;;;;;;13.90;99.90;;;;;;5014677;28;19929;-72
2021/08/26 06:35:29;;;;;;;;;;;13.90;99.90;;;;;;5013410;28;19929;-73
2021/08/26 06:37:56;;;;;;;;;;;13.90;99.90;;;;;;5031379;28;20003;-73
2021/08/26 06:40:28;;;;;;;;;;;14.00;99.90;;;;;;5014076;28;19925;-73
2021/08/26 06:42:54;;;;;;;;;;;14.10;99.90;;;;;;5013980;28;19968;-72
2021/08/26 06:45:26;;;;;;;;;;;14.00;99.90;;;;;;5014330;28;20019;-74
2021/08/26 06:47:58;;;;;;;;;;;14.10;99.90;;;;;;4998086;28;19931;-74
2021/08/26 06:50:24;;;;;;;;;;;14.10;99.90;;;;;;5031296;28;20399;-73
2021/08/26 06:52:51;;;;;;;;;;;14.10;99.90;;;;;;5013643;28;19932;-73
2021/08/26 06:55:18;;;;;;;;;;;14.10;99.90;;;;;;5013539;28;19925;-73
2021/08/26 06:57:49;;;;;;;;;;;14.10;99.90;;;;;;5014364;28;20021;-73
2021/08/26 07:00:16;;;;;;;;;;;14.00;99.90;;;;;;5013612;28;19972;-73
2021/08/26 07:02:43;;;;;;;;;;;14.00;99.90;;;;;;5013597;28;19928;-74
2021/08/26 07:05:15;;;;;;;;;;;13.90;99.90;;;;;;5015755;28;20351;-75
2021/08/26 07:07:42;;;;;;;;;;;13.90;99.90;;;;;;5017078;28;19925;-73
2021/08/26 07:10:08;;;;;;;;;;;13.90;99.90;;;;;;5017003;28;20019;-72
2021/08/26 07:12:40;;;;;;;;;;;13.90;99.90;;;;;;5017110;28;20023;-73
2021/08/26 07:15:12;;;;;;;;;;;14.00;99.90;;;;;;5016618;28;19975;-74
2021/08/26 07:17:44;;;;;;;;;;;14.00;99.90;;;;;;5017271;28;19932;-73
2021/08/26 07:20:15;;;;;;;;;;;14.00;99.90;;;;;;5034990;28;20020;-73
2021/08/26 07:22:47;;;;;;;;;;;14.00;99.90;;;;;;5001072;28;19964;-73
2021/08/26 07:25:19;;;;;;;;;;;14.00;99.90;;;;;;5034191;28;20007;-73
2021/08/26 07:27:51;;;;;;;;;;;14.00;99.90;;;;;;5017386;28;20400;-74
2021/08/26 07:30:17;;;;;;;;;;;14.00;99.90;;;;;;5000606;28;20012;-73
2021/08/26 07:32:49;;;;;;;;;;;14.00;99.90;;;;;;5016549;28;20027;-74
2021/08/26 07:35:16;;;;;;;;;;;14.00;99.90;;;;;;5033848;28;19925;-73
2021/08/26 07:37:47;;;;;;;;;;;14.00;99.90;;;;;;5016427;28;19932;-73
2021/08/26 07:40:19;;;;;;;;;;;14.10;99.90;;;;;;5016484;28;19932;-76
2021/08/26 07:42:51;;;;;;;;;;;14.10;99.90;;;;;;5034247;28;19963;-73
2021/08/26 07:45:23;;;;;;;;;;;14.20;99.90;;;;;;5016521;28;20028;-73
2021/08/26 07:47:49;;;;;;;;;;;14.10;99.90;;;;;;5000119;28;19987;-73
2021/08/26 07:50:21;;;;;;;;;;;14.10;99.90;;;;;;5016325;28;19967;-73
2021/08/26 07:52:48;;;;;;;;;;;14.20;99.90;;;;;;5016207;28;20031;-73
2021/08/26 07:55:20;;;;;;;;;;;14.30;99.90;;;;;;5015981;28;20016;-73
2021/08/26 07:57:46;;;;;;;;;;;14.30;99.90;;;;;;5015961;28;19925;-76
2021/08/26 08:00:13;;;;;;;;;;;14.30;99.90;;;;;;4999686;28;20347;-74
2021/08/26 08:02:40;;;;;;;;;;;14.30;99.90;;;;;;5016249;28;20321;-73
2021/08/26 08:05:12;;;;;;;;;;;14.40;99.90;;;;;;5016822;28;20343;-73
2021/08/26 08:07:45;;;;;;;;;;;14.40;99.90;;;;;;5016828;28;19925;-74
2021/08/26 08:10:17;;;;;;;;;;;14.50;99.90;;;;;;5016899;28;19925;-73
2021/08/26 08:12:43;;;;;;;;;;;14.50;99.90;;;;;;4999409;28;20454;-74
2021/08/26 08:15:11;;;;;;;;;;;14.50;99.90;;;;;;5015814;28;20296;-74
2021/08/26 08:17:43;;;;;;;;;;;14.40;99.90;;;;;;5032770;28;19925;-73
2021/08/26 08:20:14;;;;;;;;;;;14.40;99.90;;;;;;5015646;28;19975;-74
2021/08/26 08:22:48;;;;;;;;;;;14.40;99.90;;;;;;5015890;28;20392;-75
2021/08/26 08:25:14;;;;;;;;;;;14.40;99.90;;;;;;5015188;28;19925;-74
2021/08/26 08:27:46;;;;;;;;;;;14.40;99.90;;;;;;5016455;28;20475;-73
2021/08/26 08:30:13;;;;;;;;;;;14.40;99.90;;;;;;4999304;28;20012;-74
2021/08/26 08:32:41;;;;;;;;;;;14.40;99.90;;;;;;5015343;28;20128;-74
2021/08/26 08:35:13;;;;;;;;;;;14.30;99.90;;;;;;5032829;28;19925;-74
2021/08/26 08:37:45;;;;;;;;;;;14.30;99.90;;;;;;5015223;28;19980;-73
2021/08/26 08:40:11;;;;;;;;;;;14.30;99.90;;;;;;4999282;28;20018;-74
2021/08/26 08:42:43;;;;;;;;;;;14.40;99.90;;;;;;5015360;28;20031;-73
2021/08/26 08:45:10;;;;;;;;;;;14.40;99.90;;;;;;5015241;28;19980;-73
2021/08/26 08:47:37;;;;;;;;;;;14.40;99.90;;;;;;5032947;28;20023;-73
2021/08/26 08:50:09;;;;;;;;;;;14.40;99.90;;;;;;5032823;28;20023;-74
2021/08/26 08:52:41;;;;;;;;;;;14.30;99.90;;;;;;5015242;28;20461;-74
2021/08/26 08:55:13;;;;;;;;;;;14.40;99.90;;;;;;5015727;28;19963;-73
2021/08/26 08:57:45;;;;;;;;;;;14.40;99.90;;;;;;5015895;28;20021;-74
2021/08/26 09:00:18;;;;;;;;;;;14.30;99.90;;;;;;5015237;28;20016;-74
2021/08/26 09:02:45;;;;;;;;;;;14.30;99.90;;;;;;5016201;28;20366;-74
2021/08/26 09:05:20;;;;;;;;;;;14.30;99.90;;;;;;5016050;28;19956;-73
2021/08/26 09:07:46;;;;;;;;;;;14.20;99.90;;;;;;5015585;28;19925;-73
2021/08/26 09:10:13;;;;;;;;;;;14.20;99.90;;;;;;5015977;28;19957;-73
2021/08/26 09:12:40;;;;;;;;;;;14.30;99.90;;;;;;5016269;28;19925;-74
2021/08/26 09:15:11;;;;;;;;;;;14.30;99.90;;;;;;5032647;28;19956;-73
2021/08/26 09:17:38;;;;;;;;;;;14.30;99.90;;;;;;5032427;28;19937;-74
2021/08/26 09:20:12;;;;;;;;;;;14.30;99.90;;;;;;4999114;28;19925;-73
2021/08/26 09:22:39;;;;;;;;;;;14.30;99.90;;;;;;5014675;28;20351;-74
2021/08/26 09:25:06;;;;;;;;;;;14.30;99.90;;;;;;5014685;28;19967;-74
2021/08/26 09:27:40;;;;;;;;;;;14.40;99.90;;;;;;5015069;28;19975;-73
2021/08/26 09:30:11;;;;;;;;;;;14.30;99.90;;;;;;4998555;28;19972;-73
2021/08/26 09:32:42;;;;;;;;;;;14.20;99.90;;;;;;5032370;28;20023;-74
2021/08/26 09:35:09;;;;;;;;;;;14.00;99.90;;;;;;5014274;28;20380;-74
2021/08/26 09:37:47;;;;;;;;;;;14.00;99.90;;;;;;5031933;28;19967;-73
2021/08/26 09:40:23;;;;;;;;;;;13.90;99.90;;;;;;5015224;28;19925;-73
2021/08/26 09:42:58;;;;;;;;;;;13.80;99.90;;;;;;5014350;28;20028;-73
2021/08/26 09:45:31;;;;;;;;;;;13.80;99.90;;;;;;5031709;28;20023;-75
2021/08/26 09:48:08;;;;;;;;;;;13.70;99.90;;;;;;5015115;28;20027;-73
2021/08/26 09:50:41;;;;;;;;;;;13.70;99.90;;;;;;5031880;28;19932;-74
2021/08/26 09:53:18;;;;;;;;;;;13.60;99.90;;;;;;5014324;28;20379;-74
2021/08/26 09:55:47;;;;;;;;;;;13.60;99.90;;;;;;5031952;28;20008;-74
2021/08/26 09:58:20;;;;;;;;;;;13.60;99.90;;;;;;5031872;28;19925;-73
2021/08/26 10:00:47;;;;;;;;;;;13.60;99.90;;;;;;5014039;28;20454;-74
2021/08/26 10:03:29;;;;;;;;;;;13.60;99.90;;;;;;5015050;28;19929;-74
2021/08/26 10:05:56;;;;;;;;;;;13.70;99.90;;;;;;5013789;28;19972;-74
2021/08/26 10:08:23;;;;;;;;;;;13.70;99.90;;;;;;5031708;28;19939;-74
2021/08/26 10:10:50;;;;;;;;;;;13.80;99.90;;;;;;5014335;28;19961;-74
2021/08/26 10:13:22;;;;;;;;;;;13.80;99.90;;;;;;5032013;28;20327;-74
2021/08/26 10:15:54;;;;;;;;;;;13.80;99.90;;;;;;5013719;28;20019;-76
2021/08/26 10:18:27;;;;;;;;;;;13.90;99.90;;;;;;5014885;28;20277;-74
2021/08/26 10:20:54;;;;;;;;;;;13.90;99.90;;;;;;5031719;28;19932;-73
2021/08/26 10:23:21;;;;;;;;;;;13.90;99.90;;;;;;5013982;28;20023;-73
2021/08/26 10:25:49;;;;;;;;;;;13.90;99.90;;;;;;5031391;28;20040;-74
2021/08/26 10:28:21;;;;;;;;;;;13.90;99.90;;;;;;5013875;28;19932;-73
2021/08/26 10:30:48;;;;;;;;;;;13.90;99.90;;;;;;5014407;28;20430;-73
2021/08/26 10:33:24;;;;;;;;;;;13.90;99.90;;;;;;5031602;28;20443;-73
2021/08/26 10:35:58;;;;;;;;;;;13.90;99.90;;;;;;5031396;28;19964;-74
2021/08/26 10:38:34;;;;;;;;;;;13.90;99.90;;;;;;4998048;28;19925;-74
2021/08/26 10:41:21;;;;;;;;;;;13.90;99.90;;;;;;5016767;28;20422;-73
2021/08/26 10:43:57;;;;;;;;;;;13.90;99.90;;;;;;4996467;28;19928;-73
2021/08/26 10:47:01;;;;;;;;;;;14.00;99.90;;;;;;5017115;28;19975;-73
2021/08/26 10:49:53;;;;;;;;;;;14.00;99.90;;;;;;4958144;28;20324;-73
2021/08/26 10:52:43;;;;;;;;;;;14.10;99.90;;;;;;5017274;28;19932;-74
2021/08/26 10:55:26;;;;;;;;;;;14.10;99.90;;;;;;5034607;28;19925;-73
2021/08/26 10:57:52;;;;;;;;;;;14.10;99.90;;;;;;5034945;28;20411;-74
2021/08/26 11:00:39;;;;;;;;;;;14.10;99.90;;;;;;5018235;28;20019;-73
2021/08/26 11:03:29;;;;;;;;;;;14.10;99.90;;;;;;5001625;28;19925;-76
2021/08/26 11:06:16;;;;;;;;;;;14.20;99.90;;;;;;5016745;28;20024;-74
2021/08/26 11:08:44;;;;;;;;;;;14.20;99.90;;;;;;5017221;28;20020;-74
2021/08/26 11:11:31;;;;;;;;;;;14.20;99.90;;;;;;5034744;28;19979;-74
2021/08/26 11:14:04;;;;;;;;;;;14.20;99.90;;;;;;5017014;28;19976;-74
2021/08/26 11:16:31;;;;;;;;;;;14.20;99.90;;;;;;5016384;28;20012;-73
2021/08/26 11:18:59;;;;;;;;;;;14.20;99.90;;;;;;5034642;28;20020;-75
2021/08/26 11:21:44;;;;;;;;;;;14.10;99.90;;;;;;5034461;28;19972;-75
2021/08/26 11:24:16;;;;;;;;;;;14.10;99.90;;;;;;5017548;28;19945;-73
2021/08/26 11:26:48;;;;;;;;;;;14.10;99.90;;;;;;5017823;28;20306;-74
2021/08/26 11:29:20;;;;;;;;;;;14.10;99.90;;;;;;5017501;28;19925;-73
2021/08/26 11:31:54;;;;;;;;;;;14.10;99.90;;;;;;5016640;28;19929;-73
2021/08/26 11:34:35;;;;;;;;;;;14.10;99.90;;;;;;5016590;28;19952;-74
2021/08/26 11:37:10;;;;;;;;;;;14.10;99.90;;;;;;5000522;28;20407;-74
2021/08/26 11:39:43;;;;;;;;;;;14.00;99.90;;;;;;5001247;28;19925;-73
2021/08/26 11:42:22;;;;;;;;;;;14.00;99.90;;;;;;5016673;28;19925;-73
2021/08/26 11:45:08;;;;;;;;;;;14.00;99.90;;;;;;5034186;28;19925;-73
2021/08/26 11:47:41;;;;;;;;;;;14.00;99.90;;;;;;5000750;28;19979;-76
2021/08/26 11:50:15;;;;;;;;;;;14.00;99.90;;;;;;5017172;28;19925;-74
2021/08/26 11:52:52;;;;;;;;;;;13.90;99.90;;;;;;5016150;28;19925;-73
2021/08/26 11:55:20;;;;;;;;;;;13.90;99.90;;;;;;4999525;28;19925;-74
2021/08/26 11:57:52;;;;;;;;;;;13.90;99.90;;;;;;5015768;28;20031;-74
2021/08/26 12:00:25;;;;;;;;;;;13.90;99.90;;;;;;5016084;28;19925;-75
2021/08/26 12:02:57;;;;;;;;;;;13.90;99.90;;;;;;5015996;28;20031;-74
2021/08/26 12:05:25;;;;;;;;;;;13.90;99.90;;;;;;5033223;28;20311;-73
2021/08/26 12:07:57;;;;;;;;;;;13.90;99.90;;;;;;5016800;28;19925;-74
2021/08/26 12:10:31;;;;;;;;;;;13.90;99.90;;;;;;5016792;28;20011;-73
2021/08/26 12:13:07;;;;;;;;;;;13.90;99.90;;;;;;5016068;28;19929;-75
2021/08/26 12:15:43;;;;;;;;;;;13.90;99.90;;;;;;5015388;28;20364;-73
2021/08/26 12:18:17;;;;;;;;;;;13.90;99.90;;;;;;5015581;28;19972;-74
2021/08/26 12:20:47;;;;;;;;;;;13.90;99.90;;;;;;5015615;28;20019;-73
2021/08/26 12:23:20;;;;;;;;;;;14.00;99.90;;;;;;5015679;28;20303;-73
2021/08/26 12:26:11;;;;;;;;;;;14.00;99.90;;;;;;5033111;28;19925;-74
2021/08/26 12:28:43;;;;;;;;;;;14.00;99.90;;;;;;5033343;28;20201;-74
2021/08/26 12:31:19;;;;;;;;;;;14.00;99.90;;;;;;5016387;28;19980;-76
2021/08/26 12:34:12;;;;;;;;;;;14.10;99.90;;;;;;4999944;28;19925;-73
2021/08/26 12:36:44;;;;;;;;;;;14.10;99.90;;;;;;5014927;28;20407;-73
2021/08/26 12:39:21;;;;;;;;;;;14.20;99.90;;;;;;5016238;28;20356;-73
2021/08/26 12:42:03;;;;;;;;;;;14.20;99.90;;;;;;4999956;28;19964;-73
2021/08/26 12:44:29;;;;;;;;;;;14.30;99.90;;;;;;4998967;28;20021;-74
2021/08/26 12:47:04;;;;;;;;;;;14.30;99.90;;;;;;5015256;28;20323;-73
2021/08/26 12:49:43;;;;;;;;;;;14.40;99.90;;;;;;5032840;28;19931;-73
2021/08/26 12:52:15;;;;;;;;;;;14.40;99.90;;;;;;5015181;28;19964;-73
2021/08/26 12:54:43;;;;;;;;;;;14.40;99.90;;;;;;5015255;28;19956;-74
2021/08/26 12:57:21;;;;;;;;;;;14.50;99.90;;;;;;5014525;28;19925;-73
2021/08/26 12:59:53;;;;;;;;;;;14.50;99.90;;;;;;5032771;28;19968;-73
2021/08/26 13:02:20;;;;;;;;;;;14.50;99.90;;;;;;5032423;28;20020;-73
2021/08/26 13:05:00;;;;;;;;;;;14.50;99.90;;;;;;5015070;28;19964;-73
2021/08/26 13:07:32;;;;;;;;;;;14.60;99.90;;;;;;5014867;28;20016;-73
2021/08/26 13:10:00;;;;;;;;;;;14.60;99.90;;;;;;5015001;28;19964;-76
2021/08/26 13:12:31;;;;;;;;;;;14.60;99.90;;;;;;5014701;28;19932;-74
2021/08/26 13:15:04;;;;;;;;;;;14.60;99.90;;;;;;5014739;28;19968;-77
2021/08/26 13:17:30;;;;;;;;;;;14.60;99.90;;;;;;5014610;28;19929;-73
2021/08/26 13:20:03;;;;;;;;;;;14.60;99.90;;;;;;5032355;28;19965;-73
2021/08/26 13:22:36;;;;;;;;;;;14.60;99.90;;;;;;5014630;28;19933;-73
2021/08/26 13:25:04;;;;;;;;;;;14.60;99.90;;;;;;5014671;28;20020;-73
2021/08/26 13:27:37;;;;;;;;;;;14.60;99.90;;;;;;5015251;28;19925;-74
2021/08/26 13:30:04;;;;;;;;;;;14.60;99.90;;;;;;5014430;28;20027;-72
2021/08/26 13:32:36;;;;;;;;;;;14.50;99.90;;;;;;4998899;28;20388;-74
2021/08/26 13:35:09;;;;;;;;;;;14.50;99.90;;;;;;5031823;28;20422;-73
2021/08/26 13:37:42;;;;;;;;;;;14.50;99.90;;;;;;4998511;28;19926;-74
2021/08/26 13:40:10;;;;;;;;;;;14.50;99.90;;;;;;5032015;28;20019;-75
2021/08/26 13:42:42;;;;;;;;;;;14.50;99.90;;;;;;5032069;28;20363;-74
2021/08/26 13:45:09;;;;;;;;;;;14.40;99.90;;;;;;5014055;28;20024;-73
2021/08/26 13:47:41;;;;;;;;;;;14.40;99.90;;;;;;4998831;28;19929;-73
2021/08/26 13:50:08;;;;;;;;;;;14.50;99.90;;;;;;5032172;28;20395;-74
2021/08/26 13:52:35;;;;;;;;;;;14.40;99.90;;;;;;5014219;28;19968;-73
2021/08/26 13:55:02;;;;;;;;;;;14.50;99.90;;;;;;5014381;28;19995;-73
2021/08/26 13:57:29;;;;;;;;;;;14.40;99.90;;;;;;4997600;28;19979;-74
2021/08/26 14:00:00;;;;;;;;;;;14.40;99.90;;;;;;5015131;28;20023;-74
2021/08/26 14:02:32;;;;;;;;;;;14.40;99.90;;;;;;5015087;28;19925;-75
2021/08/26 14:05:05;;;;;;;;;;;14.40;99.90;;;;;;5015196;28;19929;-74
2021/08/26 14:07:32;;;;;;;;;;;14.30;99.90;;;;;;5014164;28;20024;-74
2021/08/26 14:10:04;;;;;;;;;;;14.40;99.90;;;;;;5014100;28;20133;-73
2021/08/26 14:12:35;;;;;;;;;;;14.40;99.90;;;;;;5031913;28;19971;-74
2021/08/26 14:15:07;;;;;;;;;;;14.40;99.90;;;;;;5015472;28;20320;-74
2021/08/26 14:17:34;;;;;;;;;;;14.30;99.90;;;;;;5035649;28;20375;-74
2021/08/26 14:20:06;;;;;;;;;;;14.40;99.90;;;;;;5018051;28;19983;-74
2021/08/26 14:22:38;;;;;;;;;;;14.30;99.90;;;;;;5017905;28;20036;-74
2021/08/26 14:25:10;;;;;;;;;;;14.40;99.90;;;;;;5018575;28;19956;-74
2021/08/26 14:27:42;;;;;;;;;;;14.40;99.90;;;;;;5035344;28;20388;-73
2021/08/26 14:30:14;;;;;;;;;;;14.30;99.90;;;;;;5017909;28;19964;-75
2021/08/26 14:32:41;;;;;;;;;;;14.30;99.90;;;;;;5018107;28;20338;-74
2021/08/26 14:35:12;;;;;;;;;;;14.30;99.90;;;;;;5018410;28;19979;-74
2021/08/26 14:37:44;;;;;;;;;;;14.30;99.90;;;;;;5002041;28;19929;-73
2021/08/26 14:40:11;;;;;;;;;;;14.30;99.90;;;;;;5035246;28;19960;-73
2021/08/26 14:42:43;;;;;;;;;;;14.30;99.90;;;;;;5035441;28;19929;-74